Time;durP1;ratioP1;P1;durP2;ratioP2;P2;SDS_P1;SDS_P2;PMS_P1;PMS_P2;Temp;Humidity;BMP_temperature;BMP_pressure;BME280_temperature;BME280_humidity;BME280_pressure;Samples;Min_cycle;Max_cycle;Signal;HPM_P1;HPM_P2
2022/04/10 00:00:43;;;;;;;13.63;5.30;;;;;;;14.99;61.93;98617.44;5078484;28;20040;-71
2022/04/10 00:03:09;;;;;;;13.88;5.18;;;;;;;14.85;62.41;98597.28;5079834;28;20040;-71
2022/04/10 00:05:35;;;;;;;10.98;4.88;;;;;;;15.05;62.30;98613.09;5078217;28;20135;-71
2022/04/10 00:08:00;;;;;;;14.98;5.25;;;;;;;14.90;62.96;98594.78;5079553;28;20033;-71
2022/04/10 00:10:26;;;;;;;16.73;5.15;;;;;;;14.84;61.62;98583.13;5078151;28;20128;-69
2022/04/10 00:12:51;;;;;;;12.02;4.88;;;;;;;14.79;64.17;98595.47;5078697;28;20099;-69
2022/04/10 00:15:17;;;;;;;16.23;5.38;;;;;;;14.83;62.69;98615.31;5079230;28;20048;-69
2022/04/10 00:17:42;;;;;;;11.93;5.38;;;;;;;14.92;62.56;98619.34;5078478;28;20040;-69
2022/04/10 00:20:11;;;;;;;16.15;4.88;;;;;;;14.99;62.46;98612.94;5079257;28;20074;-71
2022/04/10 00:22:45;;;;;;;13.85;5.30;;;;;;;15.18;62.17;98620.97;5078488;28;20055;-70
2022/04/10 00:25:12;;;;;;;;;;;;;;;15.18;61.83;98624.47;5077580;28;20028;-72
2022/04/10 00:27:38;;;;;;;15.38;5.65;;;;;;;15.19;62.46;98626.09;5079427;28;20067;-69
2022/04/10 00:30:04;;;;;;;19.70;6.88;;;;;;;15.16;63.15;98631.06;5078102;28;20059;-71
2022/04/10 00:32:29;;;;;;;17.15;6.05;;;;;;;15.27;63.21;98639.16;5076433;28;20207;-68
2022/04/10 00:34:55;;;;;;;20.42;6.35;;;;;;;15.16;63.25;98633.72;5079180;28;20047;-70
2022/04/10 00:37:21;;;;;;;20.83;8.68;;;;;;;15.29;62.41;98637.09;5078276;28;20218;-71
2022/04/10 00:39:46;;;;;;;18.88;7.03;;;;;;;15.36;62.09;98638.88;5078329;28;20029;-69
2022/04/10 00:42:12;;;;;;;16.45;6.15;;;;;;;15.21;61.58;98631.22;5078811;28;20041;-69
2022/04/10 00:44:37;;;;;;;15.32;5.68;;;;;;;14.96;62.30;98621.38;5077560;28;20222;-71
2022/04/10 00:47:03;;;;;;;23.25;7.25;;;;;;;14.88;62.74;98626.97;5078867;28;20037;-71
2022/04/10 00:49:29;;;;;;;18.13;7.07;;;;;;;14.73;63.81;98633.66;5079256;28;20044;-71
2022/04/10 00:51:56;;;;;;;22.85;7.40;;;;;;;14.70;64.06;98624.22;5078067;28;20257;-71
2022/04/10 00:54:25;;;;;;;18.90;6.50;;;;;;;14.51;64.60;98625.97;5077962;28;20082;-73
2022/04/10 00:56:51;;;;;;;13.73;6.22;;;;;;;14.37;64.81;98630.53;5077657;28;20040;-71
2022/04/10 00:59:17;;;;;;;14.25;6.35;;;;;;;14.23;65.79;98626.28;5084823;28;20229;-73
2022/04/10 01:01:46;;;;;;;15.77;5.35;;;;;;;14.09;66.26;98622.06;5083630;28;20043;-73
2022/04/10 01:04:14;;;;;;;14.57;6.68;;;;;;;14.15;66.46;98631.06;5081919;28;20048;-69
2022/04/10 01:06:41;;;;;;;13.48;5.65;;;;;;;14.27;65.75;98632.84;5081732;28;20039;-69
2022/04/10 01:09:07;;;;;;;15.95;6.13;;;;;;;14.41;65.96;98624.78;5082974;28;20040;-71
2022/04/10 01:11:34;;;;;;;20.50;6.53;;;;;;;14.55;65.98;98626.34;5084580;28;20100;-69
2022/04/10 01:14:00;;;;;;;14.43;6.00;;;;;;;14.59;65.49;98627.59;5082379;28;20036;-70
2022/04/10 01:16:27;;;;;;;18.02;6.13;;;;;;;14.66;65.12;98618.53;5081249;28;20032;-71
2022/04/10 01:18:54;;;;;;;19.27;6.07;;;;;;;14.69;65.30;98618.09;5082578;28;20064;-70
2022/04/10 01:21:25;;;;;;;16.05;6.30;;;;;;;14.77;65.10;98614.34;5081671;28;20234;-69
2022/04/10 01:23:55;;;;;;;16.27;5.53;;;;;;;14.92;64.41;98630.03;5081480;28;20246;-70
2022/04/10 01:26:26;;;;;;;14.07;6.35;;;;;;;14.79;64.77;98635.44;5069832;28;20047;-70
2022/04/10 01:28:58;;;;;;;20.30;8.00;;;;;;;14.89;64.69;98633.13;5084636;28;20263;-69
2022/04/10 01:31:23;;;;;;;19.45;8.60;;;;;;;14.96;64.46;98637.38;5083463;28;20040;-71
2022/04/10 01:33:50;;;;;;;20.58;7.53;;;;;;;15.06;64.14;98633.38;5081371;28;20048;-71
2022/04/10 01:36:16;;;;;;;26.55;8.35;;;;;;;15.12;64.01;98633.34;5082205;28;20032;-69
2022/04/10 01:38:42;;;;;;;19.25;6.20;;;;;;;15.01;63.81;98629.53;5081360;28;20273;-72
2022/04/10 01:41:14;;;;;;;16.80;6.47;;;;;;;14.75;64.97;98629.72;5082077;28;20032;-69
2022/04/10 01:43:49;;;;;;;13.88;6.13;;;;;;;14.79;65.36;98617.59;5081077;28;20105;-70
2022/04/10 01:46:16;;;;;;;16.40;6.55;;;;;;;14.66;65.76;98623.84;5080973;28;20211;-69
2022/04/10 01:48:42;;;;;;;19.38;5.72;;;;;;;14.62;66.28;98622.66;5081135;28;20044;-71
2022/04/10 01:51:08;;;;;;;16.73;6.53;;;;;;;14.68;65.64;98629.78;5081215;28;20269;-71
2022/04/10 01:53:35;;;;;;;13.32;6.15;;;;;;;14.49;65.73;98617.38;5080957;28;20097;-71
2022/04/10 01:56:02;;;;;;;14.93;5.32;;;;;;;14.22;66.33;98621.19;5081808;28;20088;-71
2022/04/10 01:58:28;;;;;;;18.20;6.05;;;;;;;14.32;66.43;98619.69;5081751;28;20040;-71
2022/04/10 02:00:53;;;;;;;15.57;5.90;;;;;;;14.47;65.97;98619.44;5080727;28;20040;-69
2022/04/10 02:03:19;;;;;;;14.90;5.80;;;;;;;14.28;67.00;98612.34;5081642;28;20032;-70
2022/04/10 02:05:44;;;;;;;17.95;5.90;;;;;;;14.13;67.43;98617.13;5082159;28;20036;-69
2022/04/10 02:08:09;;;;;;;17.75;6.60;;;;;;;13.87;68.94;98615.41;5080567;28;20038;-71
2022/04/10 02:10:35;;;;;;;14.43;6.32;;;;;;;13.89;68.59;98608.84;5079826;28;20326;-70
2022/04/10 02:13:00;;;;;;;18.05;6.97;;;;;;;13.72;69.21;98605.84;5078449;28;20032;-68
2022/04/10 02:15:26;;;;;;;14.10;6.72;;;;;;;13.72;69.43;98595.19;5079446;28;20095;-70
2022/04/10 02:17:51;;;;;;;16.40;7.57;;;;;;;13.72;70.24;98605.03;5078715;28;20159;-71
2022/04/10 02:20:17;;;;;;;17.35;7.15;;;;;;;13.84;69.87;98602.53;5079384;28;20455;-71
2022/04/10 02:22:42;;;;;;;29.77;7.15;;;;;;;13.90;70.15;98602.50;5079847;28;20033;-71
2022/04/10 02:25:08;;;;;;;21.65;6.45;;;;;;;14.25;68.16;98600.28;5080344;28;20337;-69
2022/04/10 02:27:34;;;;;;;16.55;5.80;;;;;;;14.16;68.09;98595.41;5079555;28;20052;-69
2022/04/10 02:29:59;;;;;;;12.40;6.35;;;;;;;13.97;68.74;98581.19;5080423;28;20039;-71
2022/04/10 02:32:25;;;;;;;13.18;5.68;;;;;;;13.82;69.10;98580.63;5079528;28;20040;-72
2022/04/10 02:34:50;;;;;;;17.58;6.07;;;;;;;13.71;69.94;98588.25;5079137;28;20025;-71
2022/04/10 02:37:16;;;;;;;14.32;5.53;;;;;;;13.79;69.85;98591.69;5079002;28;20104;-71
2022/04/10 02:39:41;;;;;;;19.80;6.50;;;;;;;13.81;68.99;98590.47;5078943;28;20239;-71
2022/04/10 02:42:07;;;;;;;15.40;5.68;;;;;;;13.99;68.72;98592.44;5079432;28;20028;-72
2022/04/10 02:44:32;;;;;;;14.95;6.55;;;;;;;13.86;69.22;98593.31;5079810;28;20021;-72
2022/04/10 02:46:58;;;;;;;14.68;6.05;;;;;;;13.85;69.07;98601.50;5079046;28;20034;-72
2022/04/10 02:49:23;;;;;;;17.98;5.82;;;;;;;13.85;69.03;98598.84;5080172;28;20136;-73
2022/04/10 02:51:49;;;;;;;19.50;6.60;;;;;;;13.80;69.68;98598.66;5076910;28;20252;-71
2022/04/10 02:54:17;;;;;;;12.68;5.45;;;;;;;13.73;70.01;98596.00;5079083;28;20043;-72
2022/04/10 02:56:43;;;;;;;16.08;6.38;;;;;;;13.83;69.85;98599.03;5079859;28;20020;-71
2022/04/10 02:59:08;;;;;;;15.25;5.97;;;;;;;13.94;69.76;98603.69;5078897;28;20077;-70
2022/04/10 03:01:35;;;;;;;19.27;5.50;;;;;;;14.11;68.35;98592.56;5037640;28;1173466;-70
2022/04/10 03:04:00;;;;;;;16.27;5.50;;;;;;;14.11;68.50;98596.06;5078809;28;20029;-72
2022/04/10 03:06:26;;;;;;;13.55;5.10;;;;;;;13.82;69.72;98594.75;5079345;28;20090;-70
2022/04/10 03:08:52;;;;;;;21.58;5.85;;;;;;;13.71;70.55;98584.75;5079618;28;20089;-71
2022/04/10 03:11:18;;;;;;;17.35;5.82;;;;;;;13.54;71.36;98586.25;5078290;28;20028;-69
2022/04/10 03:13:44;;;;;;;12.93;5.53;;;;;;;13.36;73.30;98579.72;5079341;28;20326;-69
2022/04/10 03:16:10;;;;;;;23.90;6.18;;;;;;;13.27;73.76;98586.28;5079783;28;20269;-69
2022/04/10 03:18:36;;;;;;;15.20;5.53;;;;;;;13.22;74.10;98596.72;5083208;28;20036;-70
2022/04/10 03:21:01;;;;;;;15.38;5.80;;;;;;;13.00;76.25;98590.78;5082557;28;20044;-70
2022/04/10 03:23:27;;;;;;;18.15;5.20;;;;;;;12.89;77.54;98593.25;5083634;28;20040;-69
2022/04/10 03:25:52;;;;;;;15.50;5.47;;;;;;;12.82;78.86;98592.44;5083415;28;20082;-69
2022/04/10 03:28:17;;;;;;;18.25;6.18;;;;;;;12.76;80.01;98594.06;5084007;28;20095;-68
2022/04/10 03:30:44;;;;;;;18.95;6.03;;;;;;;12.83;79.18;98592.22;5083382;28;20038;-71
2022/04/10 03:33:10;;;;;;;21.38;5.85;;;;;;;12.82;79.65;98581.81;5083779;28;20033;-70
2022/04/10 03:35:35;;;;;;;23.80;5.93;;;;;;;12.76;79.72;98584.25;5083087;28;20082;-68
2022/04/10 03:38:01;;;;;;;19.85;5.80;;;;;;;12.87;79.54;98585.47;5083009;28;20091;-71
2022/04/10 03:40:26;;;;;;;20.00;6.15;;;;;;;12.82;79.42;98585.28;5081929;28;20099;-72
2022/04/10 03:42:52;;;;;;;15.15;5.60;;;;;;;12.85;79.27;98584.88;5082089;28;20091;-72
2022/04/10 03:45:17;;;;;;;19.23;5.78;;;;;;;12.92;79.80;98580.38;5082910;28;20104;-72
2022/04/10 03:47:42;;;;;;;18.90;5.35;;;;;;;12.93;78.79;98581.19;5082886;28;20284;-68
2022/04/10 03:50:08;;;;;;;16.85;5.80;;;;;;;12.85;78.68;98582.22;5081752;28;20031;-71
2022/04/10 03:52:34;;;;;;;15.50;5.47;;;;;;;12.69;80.10;98579.97;5083158;28;20037;-68
2022/04/10 03:54:59;;;;;;;20.65;6.40;;;;;;;12.61;80.08;98588.94;5082823;28;20100;-72
2022/04/10 03:57:25;;;;;;;21.02;6.22;;;;;;;12.67;79.84;98590.78;5083053;28;20083;-72
2022/04/10 03:59:50;;;;;;;17.30;5.30;;;;;;;12.85;79.58;98584.88;5082754;28;20028;-72
2022/04/10 04:02:16;;;;;;;14.82;5.72;;;;;;;12.94;78.41;98593.44;5082870;28;20107;-72
2022/04/10 04:04:42;;;;;;;11.07;5.18;;;;;;;12.97;78.65;98604.47;5082637;28;20051;-72
2022/04/10 04:07:07;;;;;;;17.13;5.65;;;;;;;12.93;79.41;98605.91;5082832;28;20029;-71
2022/04/10 04:09:33;;;;;;;18.77;5.93;;;;;;;12.99;79.10;98612.25;5081666;28;20100;-71
2022/04/10 04:11:58;;;;;;;16.42;4.95;;;;;;;13.33;76.92;98614.69;5080042;28;20025;-69
2022/04/10 04:14:24;;;;;;;19.95;5.40;;;;;;;13.58;75.78;98622.03;5081174;28;20023;-69
2022/04/10 04:16:49;;;;;;;15.98;5.40;;;;;;;13.79;74.82;98627.09;5079705;28;20027;-71
2022/04/10 04:19:15;;;;;;;18.25;5.35;;;;;;;13.94;73.68;98618.84;5078486;28;20028;-69
2022/04/10 04:21:40;;;;;;;19.05;5.75;;;;;;;14.10;73.14;98623.69;5080687;28;20087;-71
2022/04/10 04:24:06;;;;;;;16.73;5.60;;;;;;;14.26;72.15;98633.84;5079376;28;20186;-69
2022/04/10 04:26:31;;;;;;;22.80;5.80;;;;;;;14.24;71.88;98643.91;5081971;28;20041;-70
2022/04/10 04:28:57;;;;;;;21.63;5.15;;;;;;;14.16;72.33;98664.63;5079541;28;20040;-69
2022/04/10 04:31:22;;;;;;;25.63;11.25;;;;;;;13.92;73.29;98674.94;5078208;28;20088;-69
2022/04/10 04:33:48;;;;;;;22.85;11.32;;;;;;;13.94;73.55;98677.41;5078417;28;20260;-69
2022/04/10 04:36:13;;;;;;;33.85;17.13;;;;;;;13.97;73.47;98666.34;5077704;28;20342;-70
2022/04/10 04:38:39;;;;;;;29.50;18.17;;;;;;;13.76;74.07;98667.41;5079594;28;20048;-71
2022/04/10 04:41:05;;;;;;;18.83;7.68;;;;;;;13.91;73.94;98662.66;5080699;28;20045;-70
2022/04/10 04:43:30;;;;;;;16.95;5.28;;;;;;;13.96;73.41;98662.03;5079359;28;20138;-69
2022/04/10 04:45:56;;;;;;;17.02;5.90;;;;;;;14.28;72.01;98654.94;5077926;28;20038;-68
2022/04/10 04:48:21;;;;;;;20.40;7.30;;;;;;;14.36;71.33;98660.03;5080091;28;20280;-70
2022/04/10 04:50:48;;;;;;;22.48;7.40;;;;;;;14.23;72.35;98665.41;5078795;28;20033;-70
2022/04/10 04:53:14;;;;;;;22.13;6.45;;;;;;;14.26;71.82;98676.47;5078262;28;20056;-71
2022/04/10 04:55:39;;;;;;;25.70;7.28;;;;;;;14.17;72.19;98658.28;5078556;28;20322;-69
2022/04/10 04:58:05;;;;;;;24.13;6.68;;;;;;;14.26;71.63;98671.13;5078284;28;20093;-69
2022/04/10 05:00:30;;;;;;;19.25;7.22;;;;;;;14.45;70.80;98666.78;5078126;28;20127;-68
2022/04/10 05:02:56;;;;;;;20.67;5.85;;;;;;;14.50;70.73;98664.28;5078998;28;20040;-70
2022/04/10 05:05:22;;;;;;;20.17;6.43;;;;;;;14.46;71.19;98660.41;5077406;28;20334;-69
2022/04/10 05:07:47;;;;;;;22.65;6.75;;;;;;;14.50;71.15;98663.47;5077879;28;20078;-68
2022/04/10 05:10:12;;;;;;;21.40;7.60;;;;;;;14.64;70.30;98655.22;5078518;28;20033;-69
2022/04/10 05:12:38;;;;;;;25.50;7.15;;;;;;;14.79;69.55;98654.09;5077999;28;20100;-70
2022/04/10 05:15:07;;;;;;;28.70;8.57;;;;;;;14.75;69.40;98658.22;5078710;28;20032;-68
2022/04/10 05:17:33;;;;;;;24.25;7.80;;;;;;;14.73;69.50;98653.13;5077644;28;20377;-68
2022/04/10 05:19:58;;;;;;;27.58;9.88;;;;;;;14.80;69.12;98658.41;5077793;28;20029;-71
2022/04/10 05:22:24;;;;;;;22.55;8.77;;;;;;;14.79;69.26;98660.25;5078529;28;20055;-69
2022/04/10 05:24:50;;;;;;;29.63;8.80;;;;;;;14.54;70.14;98654.84;5079750;28;20287;-69
2022/04/10 05:27:16;;;;;;;17.60;8.70;;;;;;;14.51;70.55;98657.13;5079296;28;20127;-69
2022/04/10 05:29:42;;;;;;;28.08;9.23;;;;;;;14.60;70.36;98666.50;5077525;28;20063;-71
2022/04/10 05:32:08;;;;;;;33.10;11.20;;;;;;;14.59;70.45;98681.69;5078734;28;20037;-70
2022/04/10 05:34:33;;;;;;;24.13;7.22;;;;;;;14.65;70.68;98688.81;5077638;28;20036;-69
2022/04/10 05:36:58;;;;;;;22.10;8.00;;;;;;;14.83;69.52;98677.44;5077513;28;20039;-70
2022/04/10 05:39:24;;;;;;;30.40;7.28;;;;;;;14.83;69.49;98669.44;5078773;28;20200;-70
2022/04/10 05:41:50;;;;;;;22.45;7.25;;;;;;;14.90;69.39;98670.22;5077623;28;20108;-71
2022/04/10 05:44:16;;;;;;;21.15;7.53;;;;;;;14.99;69.28;98678.75;5081595;28;20032;-70
2022/04/10 05:46:41;;;;;;;19.90;7.53;;;;;;;14.90;69.88;98674.72;5082272;28;20353;-68
2022/04/10 05:49:07;;;;;;;23.48;7.60;;;;;;;15.11;69.34;98673.53;5082149;28;20349;-70
2022/04/10 05:51:32;;;;;;;23.42;6.57;;;;;;;15.33;68.31;98674.78;5080716;28;20044;-71
2022/04/10 05:53:58;;;;;;;18.15;6.47;;;;;;;15.20;68.47;98664.25;5080959;28;20035;-70
2022/04/10 05:56:23;;;;;;;18.35;7.40;;;;;;;15.23;68.68;98672.63;5081753;28;20040;-69
2022/04/10 05:58:49;;;;;;;21.30;6.97;;;;;;;15.37;67.63;98670.66;5079184;28;20322;-71
2022/04/10 06:01:14;;;;;;;19.58;6.38;;;;;;;15.42;67.14;98664.66;5081985;28;20039;-71
2022/04/10 06:03:40;;;;;;;25.85;7.00;;;;;;;15.36;67.56;98660.22;5080779;28;20028;-69
2022/04/10 06:06:06;;;;;;;20.33;7.00;;;;;;;15.23;68.27;98663.81;5082721;28;20091;-69
2022/04/10 06:08:31;;;;;;;23.75;6.53;;;;;;;15.29;68.31;98660.25;5083505;28;20052;-69
2022/04/10 06:10:57;;;;;;;20.25;6.90;;;;;;;15.40;68.17;98667.56;5081893;28;20021;-69
2022/04/10 06:13:22;;;;;;;24.17;6.93;;;;;;;15.35;68.40;98662.06;5080811;28;20029;-71
2022/04/10 06:15:48;;;;;;;20.38;7.18;;;;;;;15.57;67.53;98657.97;5081450;28;20043;-71
2022/04/10 06:18:14;;;;;;;22.20;7.05;;;;;;;15.73;66.26;98658.47;5078731;28;20059;-69
2022/04/10 06:20:39;;;;;;;15.13;7.20;;;;;;;15.47;66.94;98670.16;5080637;28;20031;-69
2022/04/10 06:23:05;;;;;;;18.67;5.82;;;;;;;15.52;67.41;98678.31;5082667;28;20033;-71
2022/04/10 06:25:30;;;;;;;19.17;6.25;;;;;;;15.61;66.46;98682.41;5083092;28;20342;-69
2022/04/10 06:27:58;;;;;;;21.77;7.07;;;;;;;15.60;66.71;98678.91;5078267;28;20031;-69
2022/04/10 06:30:24;;;;;;;19.95;7.45;;;;;;;15.58;66.61;98683.63;5063497;28;20040;-70
2022/04/10 06:32:49;;;;;;;18.02;6.32;;;;;;;15.80;66.12;98669.88;5062956;28;20215;-69
2022/04/10 06:35:15;;;;;;;19.10;6.93;;;;;;;16.01;64.91;98669.44;5080329;28;20025;-69
2022/04/10 06:37:42;;;;;;;19.42;6.38;;;;;;;15.90;65.06;98657.66;5080451;28;20231;-70
2022/04/10 06:40:08;;;;;;;18.92;6.78;;;;;;;15.94;65.41;98661.50;5083028;28;20024;-69
2022/04/10 06:42:33;;;;;;;21.77;6.40;;;;;;;16.25;64.32;98649.03;5083186;28;20032;-71
2022/04/10 06:44:59;;;;;;;15.18;5.40;;;;;;;16.26;64.05;98648.00;5079517;28;20029;-72
2022/04/10 06:47:27;;;;;;;19.27;6.75;;;;;;;16.39;63.58;98665.69;5081191;28;20279;-71
2022/04/10 06:49:53;;;;;;;20.02;6.90;;;;;;;16.47;62.71;98663.53;5082504;28;20103;-69
2022/04/10 06:52:18;;;;;;;25.48;8.70;;;;;;;16.51;61.77;98654.03;5081998;28;20040;-69
2022/04/10 06:54:44;;;;;;;26.13;8.60;;;;;;;16.60;61.05;98647.31;5082665;28;20036;-71
2022/04/10 06:57:09;;;;;;;18.77;8.32;;;;;;;16.60;62.60;98654.50;5081830;28;20366;-71
2022/04/10 06:59:34;;;;;;;19.35;8.80;;;;;;;16.72;61.98;98654.63;5080952;28;20104;-70
2022/04/10 07:02:01;;;;;;;27.63;9.13;;;;;;;16.98;60.83;98648.88;5077672;28;20032;-69
2022/04/10 07:04:26;;;;;;;25.10;8.80;;;;;;;17.13;60.94;98651.91;5080092;28;20032;-69
2022/04/10 07:06:52;;;;;;;33.67;8.50;;;;;;;17.21;61.25;98646.22;5080149;28;20334;-71
2022/04/10 07:09:18;;;;;;;24.60;7.65;;;;;;;17.40;59.97;98648.78;5081635;28;20047;-71
2022/04/10 07:11:45;;;;;;;16.88;8.57;;;;;;;17.47;59.72;98650.28;5081995;28;20346;-69
2022/04/10 07:14:11;;;;;;;19.27;7.43;;;;;;;17.69;59.36;98645.22;5080167;28;20035;-72
2022/04/10 07:16:36;;;;;;;17.15;6.63;;;;;;;17.80;58.59;98628.34;5079229;28;20237;-71
2022/04/10 07:19:02;;;;;;;27.23;7.00;;;;;;;18.01;57.49;98629.56;5079513;28;20028;-69
2022/04/10 07:24:11;;;;;;;23.75;7.25;;;;;;;18.60;55.91;98635.50;5082068;28;20058;-72
2022/04/10 07:26:37;;;;;;;16.83;5.93;;;;;;;18.71;55.75;98625.81;5079786;28;20040;-71
2022/04/10 07:29:03;;;;;;;27.75;5.93;;;;;;;18.78;54.53;98638.03;5083329;28;20028;-69
2022/04/10 07:31:28;;;;;;;20.27;6.03;;;;;;;18.43;55.55;98638.16;5083371;28;20083;-69
2022/04/10 07:33:53;;;;;;;14.93;5.68;;;;;;;18.41;55.75;98644.81;5082963;28;20036;-69
2022/04/10 07:36:19;;;;;;;18.50;6.20;;;;;;;18.30;56.20;98634.94;5082996;28;20179;-71
2022/04/10 07:38:45;;;;;;;17.83;6.95;;;;;;;18.40;56.35;98645.88;5083246;28;20030;-70
2022/04/10 07:41:10;;;;;;;19.80;5.93;;;;;;;18.79;55.28;98653.09;5082169;28;20039;-70
2022/04/10 07:43:36;;;;;;;20.80;5.80;;;;;;;18.96;54.40;98653.09;5082888;28;20265;-69
2022/04/10 07:48:45;;;;;;;23.33;6.32;;;;;;;19.05;55.61;98661.56;5082917;28;20226;-70
2022/04/10 07:51:11;;;;;;;23.70;6.20;;;;;;;19.61;54.28;98662.47;5083012;28;20028;-73
2022/04/10 07:53:36;;;;;;;19.95;5.57;;;;;;;19.93;53.71;98647.34;5083105;28;20037;-74
2022/04/10 07:56:02;;;;;;;21.10;6.28;;;;;;;20.35;51.44;98650.28;5082638;28;20029;-74
2022/04/10 07:58:27;;;;;;;22.67;6.20;;;;;;;20.56;50.97;98635.22;5082980;28;20051;-73
2022/04/10 08:00:52;;;;;;;14.65;5.30;;;;;;;20.67;50.44;98645.00;5082654;28;20032;-74
2022/04/10 08:03:18;;;;;;;22.48;5.18;;;;;;;19.96;52.11;98644.16;5083048;28;20037;-73
2022/04/10 08:05:43;;;;;;;15.50;5.95;;;;;;;19.89;52.82;98646.22;5082529;28;20032;-73
2022/04/10 08:08:12;;;;;;;15.70;5.90;;;;;;;20.36;51.53;98643.03;5082711;28;20024;-75
2022/04/10 08:10:39;;;;;;;20.92;6.65;;;;;;;21.00;49.72;98644.00;5082547;28;20040;-74
2022/04/10 08:13:05;;;;;;;18.95;5.53;;;;;;;20.97;50.19;98649.06;5083131;28;20032;-73
2022/04/10 08:15:30;;;;;;;15.93;5.78;;;;;;;20.66;50.61;98654.13;5082459;28;20329;-76
2022/04/10 08:17:56;;;;;;;17.95;5.47;;;;;;;20.47;50.76;98635.91;5082777;28;20040;-73
2022/04/10 08:20:22;;;;;;;22.85;5.53;;;;;;;20.38;50.96;98648.97;5082590;28;20115;-74
2022/04/10 08:22:50;;;;;;;19.95;6.30;;;;;;;20.26;51.59;98643.72;5082925;28;20047;-72
2022/04/10 08:25:18;;;;;;;22.50;5.20;;;;;;;20.33;51.79;98647.03;5082518;28;20033;-73
2022/04/10 08:27:44;;;;;;;16.23;5.13;;;;;;;20.46;52.11;98677.31;5082444;28;20040;-75
2022/04/10 08:30:12;;;;;;;22.45;5.95;;;;;;;20.15;53.17;98697.59;5082365;28;20034;-73
2022/04/10 08:32:40;;;;;;;20.38;6.95;;;;;;;20.02;53.17;98704.97;5082202;28;20036;-73
2022/04/10 08:35:07;;;;;;;20.35;6.13;;;;;;;20.02;54.32;98717.59;5082075;28;20036;-74
2022/04/10 08:37:33;;;;;;;23.27;6.32;;;;;;;19.77;55.15;98696.56;5076812;28;20021;-75
2022/04/10 08:39:59;;;;;;;23.90;6.10;;;;;;;19.44;55.19;98700.03;5076958;28;20044;-75
2022/04/10 08:42:24;;;;;;;22.83;5.55;;;;;;;19.44;55.12;98682.06;5079091;28;20067;-77
2022/04/10 08:44:50;;;;;;;22.27;5.70;;;;;;;19.24;55.71;98705.06;5079468;28;20031;-75
2022/04/10 08:47:20;;;;;;;25.73;6.50;;;;;;;19.11;56.62;98711.56;5079100;28;20196;-69
2022/04/10 08:49:49;;;;;;;24.65;6.72;;;;;;;19.07;56.00;98697.00;5074919;28;20040;-68
2022/04/10 08:52:16;;;;;;;21.92;7.40;;;;;;;18.85;56.68;98698.75;5077334;28;20029;-67
2022/04/10 08:54:43;;;;;;;29.63;7.43;;;;;;;18.47;57.73;98679.50;5076421;28;20314;-76
2022/04/10 08:57:09;;;;;;;24.10;8.10;;;;;;;18.46;60.90;98669.84;5075205;28;20021;-67
2022/04/10 08:59:34;;;;;;;28.02;7.47;;;;;;;18.43;64.27;98666.81;5078230;28;20058;-71
2022/04/10 09:02:00;;;;;;;22.23;6.93;;;;;;;18.57;65.28;98652.09;5074805;28;20040;-70
2022/04/10 09:04:25;;;;;;;20.58;7.22;;;;;;;18.44;67.97;98663.91;5076357;28;20345;-72
2022/04/10 09:06:58;;;;;;;29.88;7.72;;;;;;;18.30;70.36;98678.63;5076390;28;20082;-70
2022/04/10 09:09:24;;;;;;;22.35;6.70;;;;;;;18.12;70.20;98634.06;5074961;28;20098;-73
2022/04/10 09:11:54;;;;;;;22.02;7.53;;;;;;;18.30;70.60;98665.25;5076855;28;20046;-70
2022/04/10 09:14:40;;;;;;;25.55;7.63;;;;;;;18.44;69.88;98657.72;5076643;28;20293;-71
2022/04/10 09:17:18;;;;;;;19.55;7.28;;;;;;;18.43;69.75;98650.75;5078298;28;20036;-73
2022/04/10 09:19:51;;;;;;;23.73;7.03;;;;;;;18.30;70.43;98649.16;5084333;28;20027;-70
2022/04/10 09:22:25;;;;;;;16.60;7.07;;;;;;;18.13;68.95;98645.59;5079769;28;20047;-70
2022/04/10 09:25:00;;;;;;;;;;;;;;;18.23;68.94;98640.44;5084925;28;20035;-73
2022/04/10 09:27:32;;;;;;;;;;;;;;;18.27;67.85;98636.25;5086760;28;19916;-73
2022/04/10 09:29:58;;;;;;;19.77;6.72;;;;;;;18.21;68.03;98629.16;5084357;28;19916;-70
2022/04/10 09:32:36;;;;;;;27.00;7.90;;;;;;;18.49;67.48;98626.47;5086099;28;20230;-72
2022/04/10 09:35:02;;;;;;;20.35;6.40;;;;;;;18.59;67.82;98628.53;5085511;28;20021;-72
2022/04/10 09:37:30;;;;;;;22.17;7.28;;;;;;;18.80;66.32;98635.94;5084319;28;20043;-70
2022/04/10 09:40:16;;;;;;;17.63;6.85;;;;;;;18.90;64.05;98639.84;5085586;28;20475;-73
2022/04/10 09:42:41;;;;;;;16.33;6.50;;;;;;;19.19;63.24;98640.59;5079361;28;20049;-70
2022/04/10 09:45:30;;;;;;;26.00;7.20;;;;;;;19.26;62.72;98636.69;5085097;28;20222;-70
2022/04/10 09:47:56;;;;;;;19.10;6.50;;;;;;;19.41;61.37;98642.28;5085457;28;20040;-72
2022/04/10 09:50:41;;;;;;;21.40;7.28;;;;;;;19.64;59.43;98645.84;5085174;28;20055;-71
2022/04/10 09:53:08;;;;;;;19.90;6.90;;;;;;;19.72;59.57;98632.81;5085439;28;20040;-73
2022/04/10 09:55:33;;;;;;;25.30;7.15;;;;;;;19.75;58.00;98623.44;5085238;28;20287;-70
2022/04/10 09:58:02;;;;;;;20.67;7.28;;;;;;;19.53;58.02;98627.97;5085228;28;20043;-70
2022/04/10 10:00:28;;;;;;;19.20;6.75;;;;;;;19.63;58.18;98618.19;5083761;28;20103;-73
2022/04/10 10:02:55;;;;;;;24.70;7.53;;;;;;;19.74;57.03;98633.38;5085342;28;20052;-72
2022/04/10 10:05:21;;;;;;;22.83;7.35;;;;;;;19.77;57.13;98614.09;5084858;28;20221;-70
2022/04/10 10:07:48;;;;;;;29.85;13.82;;;;;;;19.88;56.95;98619.63;5085369;28;20071;-71
2022/04/10 10:10:17;;;;;;;21.10;8.77;;;;;;;19.81;58.44;98622.47;5084916;28;20032;-73
2022/04/10 10:12:45;;;;;;;19.90;8.68;;;;;;;19.79;57.63;98623.78;5084624;28;20108;-70
2022/04/10 10:15:11;;;;;;;20.88;9.40;;;;;;;20.04;57.88;98622.25;5082454;28;20047;-70
2022/04/10 10:17:37;;;;;;;25.65;9.63;;;;;;;20.26;57.12;98603.41;5084496;28;20040;-73
2022/04/10 10:20:05;;;;;;;17.77;9.13;;;;;;;20.48;56.21;98605.28;5083336;28;20044;-73
2022/04/10 10:22:31;;;;;;;21.85;9.43;;;;;;;20.50;55.69;98595.06;5080427;28;20266;-73
2022/04/10 10:25:03;;;;;;;23.92;8.57;;;;;;;20.52;54.46;98599.13;5080475;28;20024;-71
2022/04/10 10:27:41;;;;;;;22.40;9.23;;;;;;;20.37;54.84;98601.63;5080944;28;20063;-71
2022/04/10 10:30:09;;;;;;;20.25;9.15;;;;;;;20.22;55.25;98594.22;5081822;28;20036;-71
2022/04/10 10:32:55;;;;;;;16.52;7.90;;;;;;;20.48;53.55;98602.56;5080350;28;20040;-73
2022/04/10 10:35:49;;;;;;;23.95;7.90;;;;;;;20.60;53.10;98590.59;5080001;28;20036;-71
2022/04/10 10:38:25;;;;;;;16.85;7.15;;;;;;;20.73;53.77;98581.31;5059001;28;20087;-73
2022/04/10 10:41:10;;;;;;;18.17;7.93;;;;;;;20.66;53.64;98581.50;5080462;28;20032;-71
2022/04/10 10:43:35;;;;;;;18.52;8.25;;;;;;;20.68;53.26;98578.56;5080807;28;20068;-73
2022/04/10 10:46:01;;;;;;;20.63;8.73;;;;;;;20.71;54.04;98572.69;5079739;28;20040;-73
2022/04/10 10:48:32;;;;;;;22.23;8.82;;;;;;;20.81;53.59;98569.28;5078748;28;20139;-72
2022/04/10 10:51:10;;;;;;;17.73;8.20;;;;;;;20.89;51.71;98568.81;5080775;28;20209;-71
2022/04/10 10:53:45;;;;;;;22.25;8.75;;;;;;;20.87;51.56;98565.56;5080657;28;20033;-73
2022/04/10 10:56:14;;;;;;;19.25;8.30;;;;;;;20.91;52.41;98572.06;5082512;28;20051;-72
2022/04/10 10:58:41;;;;;;;18.80;7.95;;;;;;;21.06;51.55;98571.38;5079790;28;20226;-73
2022/04/10 11:01:07;;;;;;;20.13;8.07;;;;;;;21.00;52.32;98568.63;5079588;28;20028;-73
2022/04/10 11:04:03;;;;;;;19.55;8.13;;;;;;;21.12;51.57;98568.44;5080118;28;20036;-73
2022/04/10 11:06:30;;;;;;;24.63;8.82;;;;;;;20.73;52.63;98565.97;5079809;28;20104;-71
2022/04/10 11:09:22;;;;;;;20.33;7.88;;;;;;;20.73;52.54;98551.72;5080311;28;20268;-71
2022/04/10 11:11:49;;;;;;;19.08;7.97;;;;;;;20.99;52.30;98548.16;5075249;28;20025;-73
2022/04/10 11:14:34;;;;;;;20.42;7.78;;;;;;;20.86;52.88;98547.81;5079965;28;20059;-73
2022/04/10 11:17:09;;;;;;;19.27;8.43;;;;;;;21.24;51.60;98544.88;5079851;28;20051;-73
2022/04/10 11:19:37;;;;;;;19.73;8.20;;;;;;;21.31;51.24;98537.38;5079023;28;20028;-73
2022/04/10 11:22:04;;;;;;;16.55;8.15;;;;;;;21.37;50.19;98535.50;5079336;28;20107;-73
2022/04/10 11:24:34;;;;;;;21.77;9.10;;;;;;;20.88;52.31;98535.72;5081923;28;20231;-71
2022/04/10 11:26:59;;;;;;;20.67;8.90;;;;;;;20.73;52.74;98540.94;5083740;28;20212;-71
2022/04/10 11:29:25;;;;;;;22.67;9.10;;;;;;;20.74;53.05;98526.44;5083275;28;20035;-73
2022/04/10 11:31:53;;;;;;;28.55;10.23;;;;;;;21.01;51.63;98532.56;5083394;28;20100;-73